Brora, United Kingdom
Current Conditions -  °F | °C
As of 9:50 PM on Thursday 27 Nov 2014 (Local Time) from EGQK Reporting Station
Broken Clouds Broken Clouds  
Wind Chill:   Ceiling: 1300
Heat Index:   Visibility: 6mi
Dew Point:   Wind: 5mph
Humidity: 100%   Direction: 70°ENE
Pressure: 29.65"   Gusts: NA
Location:  58.01°N, 3.85°W
Report Text: EGQK 272150Z AUTO 07004KT 9999 BKN013/// SCT070/// 08/08 Q1004 RERA
Loading
Personal Weather Stations






























Interactive Weather Map New forecast layout! Learn more

10-Day Weather Forecast

Advertisements
Track Severe Weather on mobile